Jard Fagot, Puerto Rico
Current Conditions -  °F | °C
As of 4:50 PM on Thursday 23 Oct 2014 (Local Time) from TJBQ Reporting Station
Broken Clouds Broken Clouds  
Wind Chill: 84°   Ceiling: 6000
Heat Index: 91°   Visibility: 10mi
Dew Point: 73°   Wind: 6mph
Humidity: 70%   Direction: 20°NNE
Pressure: 29.9"   Gusts: NA
Location:  18.0093°N, 66.6209°W
Report Text: TJBQ 232050Z 02005KT 10SM SCT033 SCT046 BKN060 29/23 A2990 RMK RWY08 CLSD - ATIS L
Loading
Personal Weather Stations






























Interactive Weather Map
Tropical Storm Tracking
New forecast layout! Learn more

10-Day Weather Forecast

Advertisements
Track Severe Weather on mobile